Weather at Lindøye Seaplane Base [CLOSED]

Public forecast

Using degrees Celsius for public forecast. Weather courtesy of forecast.io.

Closest aviation weather report (METAR) to Lindøye Seaplane Base

Closest report is Oslo Airport, Gardermoen, 21.5 nm (39.8 km) NNE.

2024/05/21 06:50 (retrieved 37 minutes ago)

ENGM 210650Z 16004KT 100V250 CAVOK 15/02 Q1023 NOSIG

Closest aviation forecast (TAF) to Lindøye Seaplane Base

Closest forecast is Oslo Airport, Gardermoen, 21.5 nm (39.8 km) NNE.

2024/05/21 06:36 (retrieved 51 minutes ago)

TAF ENGM 210500Z 2106/2206 VRB03KT CAVOK BECMG 2107/2109 15010KT BECMG 2122/2124 VRB05KT